createdAt,value
2019-05-25T00:01:46.292Z,100212.55
2019-05-25T00:04:51.097Z,100217.91
2019-05-25T00:07:55.967Z,100217.83
2019-05-25T00:11:01.102Z,100213.73
2019-05-25T00:14:05.906Z,100210.59
2019-05-25T00:17:11.064Z,100211.16
2019-05-25T00:20:16.927Z,100210.45
2019-05-25T00:23:21.661Z,100205.22
2019-05-25T00:26:27.473Z,100210.03
2019-05-25T00:29:32.294Z,100201.58
2019-05-25T00:32:37.459Z,100206.75
2019-05-25T00:35:43.217Z,100210.73
2019-05-25T00:38:48.082Z,100208.35
2019-05-25T00:41:54.483Z,100217.16
2019-05-25T00:44:59.883Z,100214.28
2019-05-25T00:48:04.731Z,100219.59
2019-05-25T00:51:09.805Z,100218.10
2019-05-25T00:54:27.028Z,100214.30
2019-05-25T00:57:21.255Z,100219.16
2019-05-25T01:00:26.151Z,100210.62
2019-05-25T01:03:30.973Z,100211.28
2019-05-25T01:06:35.840Z,100222.47
2019-05-25T01:09:40.797Z,100214.49
2019-05-25T01:12:46.142Z,100209.38
2019-05-25T01:15:51.272Z,100209.18
2019-05-25T01:18:56.082Z,100212.48
2019-05-25T01:22:00.902Z,100210.37
2019-05-25T01:25:06.329Z,100212.83
2019-05-25T01:28:11.566Z,100213.34
2019-05-25T01:31:16.743Z,100217.91
2019-05-25T01:34:21.492Z,100216.50
2019-05-25T01:37:26.262Z,100217.20
2019-05-25T01:40:31.321Z,100215.98
2019-05-25T01:43:36.234Z,100219.35
2019-05-25T01:46:41.429Z,100211.19
2019-05-25T01:49:46.537Z,100216.97
2019-05-25T01:52:51.592Z,100228.66
2019-05-25T01:55:56.420Z,100231.36
2019-05-25T01:59:01.138Z,100234.98
2019-05-25T02:02:05.962Z,100239.19
2019-05-25T02:05:11.508Z,100230.81
2019-05-25T02:08:16.673Z,100225.34
2019-05-25T02:11:21.429Z,100228.77
2019-05-25T02:14:26.587Z,100234.22
2019-05-25T02:17:31.319Z,100227.18
2019-05-25T02:20:36.066Z,100234.89
2019-05-25T02:23:41.142Z,100235.09
2019-05-25T02:26:45.928Z,100235.05
2019-05-25T02:29:51.106Z,100227.55
2019-05-25T02:32:56.384Z,100223.25
2019-05-25T02:36:01.522Z,100238.64
2019-05-25T02:39:07.898Z,100238.64
2019-05-25T02:42:13.042Z,100227.58
2019-05-25T02:45:18.602Z,100224.87
2019-05-25T02:48:24.598Z,100228.30
2019-05-25T02:51:29.748Z,100228.30
2019-05-25T02:54:34.585Z,100225.91
2019-05-25T02:57:39.360Z,100225.91
2019-05-25T03:00:44.250Z,100235.47
2019-05-25T03:03:49.363Z,100220.88
2019-05-25T03:06:55.194Z,100232.82
2019-05-25T03:10:01.221Z,100239.32
2019-05-25T03:13:06.209Z,100239.32
2019-05-25T03:16:10.970Z,100242.95
2019-05-25T03:19:15.714Z,100246.86
2019-05-25T03:22:21.545Z,100246.08
2019-05-25T03:25:26.647Z,100246.86
2019-05-25T03:28:31.595Z,100252.38
2019-05-25T03:31:36.355Z,100251.05
2019-05-25T03:34:41.104Z,100253.99
2019-05-25T03:37:45.879Z,100258.48
2019-05-25T03:40:51.017Z,100260.98
2019-05-25T03:43:55.777Z,100261.31
2019-05-25T03:47:00.614Z,100257.47
2019-05-25T03:50:06.570Z,100259.52
2019-05-25T03:53:11.641Z,100257.26
2019-05-25T03:56:16.622Z,100263.64
2019-05-25T03:59:21.727Z,100264.11
2019-05-25T04:02:26.864Z,100264.11
2019-05-25T04:05:31.622Z,100266.37
2019-05-25T04:08:36.379Z,100263.89
2019-05-25T04:11:42.208Z,100264.79
2019-05-25T04:14:47.301Z,100266.44
2019-05-25T04:17:52.405Z,100275.36
2019-05-25T04:20:57.495Z,100272.45
2019-05-25T04:24:02.262Z,100272.95
2019-05-25T04:27:07.309Z,100270.91
2019-05-25T04:30:12.842Z,100277.40
2019-05-25T04:33:17.594Z,100278.95
2019-05-25T04:36:22.419Z,100283.46
2019-05-25T04:39:27.143Z,100293.16
2019-05-25T04:42:32.253Z,100285.30
2019-05-25T04:45:37.078Z,100285.30
2019-05-25T04:48:41.832Z,100295.12
2019-05-25T04:51:46.608Z,100301.34
2019-05-25T04:54:51.713Z,100299.61
2019-05-25T04:57:56.779Z,100302.66
2019-05-25T05:01:02.645Z,100302.66
2019-05-25T05:04:07.479Z,100300.77
2019-05-25T05:07:12.489Z,100303.31
2019-05-25T05:10:17.459Z,100294.79
2019-05-25T05:13:22.218Z,100303.69
2019-05-25T05:16:26.978Z,100305.88
2019-05-25T05:19:31.726Z,100302.91
2019-05-25T05:22:36.473Z,100295.84
2019-05-25T05:25:41.281Z,100292.33
2019-05-25T05:28:49.140Z,100297.78
2019-05-25T05:31:53.518Z,100305.17
2019-05-25T05:34:59.512Z,100297.59
2019-05-25T05:38:07.149Z,100298.35
2019-05-25T05:41:13.225Z,100302.79
2019-05-25T05:44:21.842Z,100307.92
2019-05-25T05:47:28.779Z,100303.75
2019-05-25T05:50:36.976Z,100309.92
2019-05-25T05:53:43.652Z,100309.91
2019-05-25T05:56:48.683Z,100309.91
2019-05-25T05:59:53.523Z,100320.54
2019-05-25T06:02:58.286Z,100322.61
2019-05-25T06:06:03.514Z,100325.44
2019-05-25T06:09:09.126Z,100326.84
2019-05-25T06:12:14.223Z,100350.08
2019-05-25T06:15:19.205Z,100327.82
2019-05-25T06:18:24.101Z,100338.19
2019-05-25T06:21:28.877Z,100341.08
2019-05-25T06:24:33.780Z,100335.52
2019-05-25T06:27:38.709Z,100347.94
2019-05-25T06:30:43.981Z,100347.23
2019-05-25T06:33:49.171Z,100345.92
2019-05-25T06:36:54.104Z,100347.52
2019-05-25T06:39:58.875Z,100346.60
2019-05-25T06:43:04.318Z,100346.60
2019-05-25T06:46:09.154Z,100352.86
2019-05-25T06:49:14.016Z,100352.86
2019-05-25T06:52:19.194Z,100351.85
2019-05-25T06:55:23.897Z,100349.00
2019-05-25T06:58:28.700Z,100349.00
2019-05-25T07:01:33.546Z,100354.42
2019-05-25T07:04:39.366Z,100356.96
2019-05-25T07:07:44.570Z,100358.93
2019-05-25T07:10:49.868Z,100359.39
2019-05-25T07:13:54.991Z,100359.39
2019-05-25T07:16:59.984Z,100367.73
2019-05-25T07:20:06.211Z,100363.33
2019-05-25T07:23:11.063Z,100366.02
2019-05-25T07:26:15.893Z,100366.73
2019-05-25T07:29:20.653Z,100362.75
2019-05-25T07:32:25.466Z,100374.97
2019-05-25T07:35:30.203Z,100370.57
2019-05-25T07:38:35.052Z,100373.51
2019-05-25T07:41:40.492Z,100376.91
2019-05-25T07:44:45.287Z,100382.44
2019-05-25T07:47:50.020Z,100381.42
2019-05-25T07:50:55.300Z,100380.66
2019-05-25T07:54:00.150Z,100380.06
2019-05-25T07:57:05.547Z,100382.13
2019-05-25T08:00:11.858Z,100379.99
2019-05-25T08:03:16.656Z,100379.32
2019-05-25T08:06:21.530Z,100379.32
2019-05-25T08:09:26.356Z,100381.11
2019-05-25T08:12:31.100Z,100383.52
2019-05-25T08:15:36.149Z,100386.99
2019-05-25T08:18:40.911Z,100384.83
2019-05-25T08:21:46.031Z,100391.92
2019-05-25T08:24:50.820Z,100390.88
2019-05-25T08:27:55.628Z,100378.63
2019-05-25T08:31:01.425Z,100386.86
2019-05-25T08:34:06.406Z,100388.06
2019-05-25T08:37:11.154Z,100394.13
2019-05-25T08:40:16.220Z,100385.59
2019-05-25T08:43:21.084Z,100385.04
2019-05-25T08:46:26.161Z,100382.83
2019-05-25T08:49:32.612Z,100383.19
2019-05-25T08:52:37.519Z,100391.14
2019-05-25T08:55:42.661Z,100384.00
2019-05-25T08:58:48.833Z,100384.12
2019-05-25T09:01:53.793Z,100388.84
2019-05-25T09:04:58.904Z,100385.58
2019-05-25T09:08:03.722Z,100386.91
2019-05-25T09:11:09.017Z,100391.15
2019-05-25T09:14:14.943Z,100387.39
2019-05-25T09:17:19.965Z,100392.64
2019-05-25T09:20:25.194Z,100395.06
2019-05-25T09:23:30.189Z,100391.88
2019-05-25T09:26:35.317Z,100386.52
2019-05-25T09:29:40.509Z,100389.02
2019-05-25T09:32:45.220Z,100385.69
2019-05-25T09:35:50.402Z,100384.36
2019-05-25T09:38:55.449Z,100385.59
2019-05-25T09:42:00.307Z,100383.17
2019-05-25T09:45:07.243Z,100382.55
2019-05-25T09:48:12.253Z,100387.08
2019-05-25T09:51:17.058Z,100390.63
2019-05-25T09:54:21.868Z,100384.77
2019-05-25T09:57:28.278Z,100393.63
2019-05-25T10:00:33.849Z,100390.56
2019-05-25T10:03:38.702Z,100397.92
2019-05-25T10:06:43.604Z,100397.06
2019-05-25T10:09:48.795Z,100397.55
2019-05-25T10:12:53.632Z,100393.48
2019-05-25T10:15:58.432Z,100388.25
2019-05-25T10:19:03.157Z,100382.14
2019-05-25T10:22:08.113Z,100378.77
2019-05-25T10:25:13.225Z,100378.52
2019-05-25T10:28:18.061Z,100378.98
2019-05-25T10:31:23.114Z,100368.27
2019-05-25T10:34:27.999Z,100367.92
2019-05-25T10:37:33.456Z,100365.09
2019-05-25T10:40:38.255Z,100365.10
2019-05-25T10:43:43.104Z,100358.28
2019-05-25T10:46:47.885Z,100350.69
2019-05-25T10:49:52.756Z,100352.25
2019-05-25T10:52:57.523Z,100356.52
2019-05-25T10:56:02.808Z,100357.06
2019-05-25T10:59:07.757Z,100352.73
2019-05-25T11:02:12.513Z,100354.08
2019-05-25T11:05:18.620Z,100351.77
2019-05-25T11:08:23.395Z,100348.14
2019-05-25T11:11:28.370Z,100345.33
2019-05-25T11:14:33.168Z,100345.90
2019-05-25T11:17:38.555Z,100343.75
2019-05-25T11:20:43.378Z,100334.69
2019-05-25T11:23:48.296Z,100335.50
2019-05-25T11:26:53.285Z,100331.05
2019-05-25T11:30:08.419Z,100322.72
2019-05-25T11:33:04.619Z,100313.44
2019-05-25T11:36:09.381Z,100316.28
2019-05-25T11:39:14.238Z,100313.15
2019-05-25T11:42:19.020Z,100317.34
2019-05-25T11:45:24.911Z,100318.19
2019-05-25T11:48:29.990Z,100303.66
2019-05-25T11:51:35.028Z,100310.48
2019-05-25T11:54:40.346Z,100327.44
2019-05-25T11:57:46.332Z,100323.98
2019-05-25T12:00:52.324Z,100320.50
2019-05-25T12:03:57.174Z,100318.58
2019-05-25T12:07:02.610Z,100319.30
2019-05-25T12:10:09.021Z,100320.03
2019-05-25T12:13:14.119Z,100321.73
2019-05-25T12:16:19.062Z,100318.77
2019-05-25T12:19:24.027Z,100308.30
2019-05-25T12:22:28.803Z,100306.89
2019-05-25T12:25:33.660Z,100303.52
2019-05-25T12:28:38.410Z,100301.61
2019-05-25T12:31:43.843Z,100300.66
2019-05-25T12:34:48.641Z,100299.50
2019-05-25T12:37:53.711Z,100289.58
2019-05-25T12:40:58.562Z,100292.30
2019-05-25T12:44:03.545Z,100303.83
2019-05-25T12:47:08.404Z,100308.22
2019-05-25T12:50:13.719Z,100307.25
2019-05-25T12:53:18.488Z,100310.52
2019-05-25T12:56:23.355Z,100305.20
2019-05-25T12:59:28.174Z,100306.30
2019-05-25T13:02:33.090Z,100302.80
2019-05-25T13:05:37.969Z,100306.38
2019-05-25T13:08:44.107Z,100312.02
2019-05-25T13:11:49.021Z,100310.92
2019-05-25T13:14:54.206Z,100308.62
2019-05-25T13:17:59.685Z,100299.31
2019-05-25T13:21:04.473Z,100302.65
2019-05-25T13:24:09.273Z,100300.56
2019-05-25T13:27:14.737Z,100300.92
2019-05-25T13:30:20.405Z,100299.58
2019-05-25T13:33:25.800Z,100300.94
2019-05-25T13:36:30.834Z,100295.44
2019-05-25T13:39:35.575Z,100291.27
2019-05-25T13:42:40.314Z,100277.23
2019-05-25T13:45:46.185Z,100284.80
2019-05-25T13:48:51.440Z,100278.59
2019-05-25T13:51:56.469Z,100282.95
2019-05-25T13:55:01.309Z,100278.67
2019-05-25T13:58:06.523Z,100279.73
2019-05-25T14:01:25.617Z,100276.66
2019-05-25T14:04:18.477Z,100279.86
2019-05-25T14:07:23.591Z,100276.73
2019-05-25T14:10:28.772Z,100273.42
2019-05-25T14:13:34.132Z,100274.44
2019-05-25T14:16:39.229Z,100274.19
2019-05-25T14:19:44.313Z,100272.75
2019-05-25T14:22:49.082Z,100274.50
2019-05-25T14:25:53.922Z,100270.99
2019-05-25T14:28:59.289Z,100271.11
2019-05-25T14:32:04.179Z,100272.81
2019-05-25T14:35:10.076Z,100267.31
2019-05-25T14:38:14.944Z,100263.77
2019-05-25T14:41:19.647Z,100260.75
2019-05-25T14:44:24.732Z,100258.38
2019-05-25T14:47:30.080Z,100255.05
2019-05-25T14:50:36.861Z,100262.33
2019-05-25T14:53:42.082Z,100255.39
2019-05-25T14:56:46.838Z,100255.08
2019-05-25T14:59:51.643Z,100258.56
2019-05-25T15:02:56.470Z,100254.47
2019-05-25T15:06:01.271Z,100252.19
2019-05-25T15:09:07.359Z,100256.17
2019-05-25T15:12:12.127Z,100259.38
2019-05-25T15:15:17.242Z,100266.34
2019-05-25T15:18:21.964Z,100269.03
2019-05-25T15:21:27.042Z,100268.31
2019-05-25T15:24:31.746Z,100271.67
2019-05-25T15:27:37.072Z,100268.86
2019-05-25T15:30:42.159Z,100273.01
2019-05-25T15:33:47.022Z,100263.12
2019-05-25T15:36:51.825Z,100268.55
2019-05-25T15:39:56.943Z,100270.64
2019-05-25T15:43:01.667Z,100275.54
2019-05-25T15:46:06.979Z,100279.47
2019-05-25T15:49:11.839Z,100279.31
2019-05-25T15:52:17.005Z,100280.84
2019-05-25T15:55:22.225Z,100282.83
2019-05-25T15:58:27.086Z,100279.94
2019-05-25T16:01:32.027Z,100281.86
2019-05-25T16:04:37.276Z,100281.78
2019-05-25T16:07:45.379Z,100282.16
2019-05-25T16:10:50.290Z,100288.14
2019-05-25T16:13:55.384Z,100290.63
2019-05-25T16:17:00.633Z,100291.23
2019-05-25T16:20:05.775Z,100290.46
2019-05-25T16:23:13.543Z,100301.01
2019-05-25T16:26:18.303Z,100294.97
2019-05-25T16:29:23.471Z,100300.48
2019-05-25T16:32:28.262Z,100299.00
2019-05-25T16:35:33.413Z,100301.23
2019-05-25T16:38:38.320Z,100307.50
2019-05-25T16:41:43.461Z,100308.94
2019-05-25T16:44:48.318Z,100305.76
2019-05-25T16:47:53.287Z,100306.86
2019-05-25T16:50:59.612Z,100309.73
2019-05-25T16:54:04.430Z,100309.05
2019-05-25T16:57:10.554Z,100310.58
2019-05-25T17:00:19.638Z,100304.73
2019-05-25T17:03:28.438Z,100301.84
2019-05-25T17:06:31.870Z,100296.95
2019-05-25T17:09:37.707Z,100299.92
2019-05-25T17:12:42.715Z,100303.45
2019-05-25T17:15:47.529Z,100298.28
2019-05-25T17:18:52.341Z,100296.42
2019-05-25T17:21:57.719Z,100294.25
2019-05-25T17:25:02.619Z,100291.69
2019-05-25T17:28:07.532Z,100293.73
2019-05-25T17:31:12.602Z,100297.44
2019-05-25T17:34:17.494Z,100292.41
2019-05-25T17:37:22.243Z,100288.57
2019-05-25T17:40:27.072Z,100291.87
2019-05-25T17:43:31.882Z,100295.84
2019-05-25T17:46:36.728Z,100295.01
2019-05-25T17:49:41.550Z,100289.88
2019-05-25T17:52:46.294Z,100296.23
2019-05-25T17:55:51.037Z,100301.11
2019-05-25T17:58:56.873Z,100302.46
2019-05-25T18:02:01.612Z,100297.33
2019-05-25T18:05:06.973Z,100309.17
2019-05-25T18:08:12.238Z,100304.20
2019-05-25T18:11:17.124Z,100304.83
2019-05-25T18:14:22.894Z,100304.28
2019-05-25T18:17:27.725Z,100307.14
2019-05-25T18:20:32.449Z,100311.23
2019-05-25T18:23:37.397Z,100308.70
2019-05-25T18:26:42.322Z,100313.23
2019-05-25T18:29:47.171Z,100317.47
2019-05-25T18:32:51.985Z,100321.14
2019-05-25T18:35:59.002Z,100323.45
2019-05-25T18:39:05.355Z,100330.31
2019-05-25T18:42:10.831Z,100332.03
2019-05-25T18:45:15.925Z,100330.01
2019-05-25T18:48:20.683Z,100331.72
2019-05-25T18:51:25.601Z,100326.59
2019-05-25T18:54:30.577Z,100334.75
2019-05-25T18:57:36.394Z,100341.22
2019-05-25T19:00:41.210Z,100340.16
2019-05-25T19:03:48.816Z,100341.73
2019-05-25T19:06:53.704Z,100351.95
2019-05-25T19:09:58.514Z,100346.06
2019-05-25T19:13:03.304Z,100346.27
2019-05-25T19:16:08.482Z,100345.83
2019-05-25T19:19:13.878Z,100350.20
2019-05-25T19:22:18.635Z,100350.91
2019-05-25T19:25:23.451Z,100355.41
2019-05-25T19:28:32.314Z,100365.95
2019-05-25T19:31:37.513Z,100366.88
2019-05-25T19:34:56.668Z,100367.02
2019-05-25T19:37:48.866Z,100371.89
2019-05-25T19:40:53.780Z,100378.59
2019-05-25T19:43:58.832Z,100376.77
2019-05-25T19:47:03.760Z,100384.52
2019-05-25T19:50:09.717Z,100386.23
2019-05-25T19:53:14.455Z,100395.98
2019-05-25T19:56:19.283Z,100398.81
2019-05-25T19:59:24.507Z,100402.97
2019-05-25T20:02:29.566Z,100408.77
2019-05-25T20:05:34.703Z,100417.27
2019-05-25T20:08:39.647Z,100416.55
2019-05-25T20:11:44.828Z,100416.79
2019-05-25T20:14:49.697Z,100417.91
2019-05-25T20:17:54.576Z,100423.15
2019-05-25T20:20:59.793Z,100435.19
2019-05-25T20:24:04.681Z,100434.33
2019-05-25T20:27:09.510Z,100435.35
2019-05-25T20:30:14.685Z,100437.30
2019-05-25T20:33:27.691Z,100438.47
2019-05-25T20:36:26.047Z,100436.80
2019-05-25T20:39:31.220Z,100443.27
2019-05-25T20:42:36.568Z,100451.41
2019-05-25T20:45:41.570Z,100450.27
2019-05-25T20:48:47.032Z,100449.89
2019-05-25T20:51:51.847Z,100462.16
2019-05-25T20:54:56.607Z,100463.70
2019-05-25T20:58:01.362Z,100472.48
2019-05-25T21:01:06.386Z,100467.84
2019-05-25T21:04:12.152Z,100470.48
2019-05-25T21:07:17.160Z,100477.80
2019-05-25T21:10:21.932Z,100474.35
2019-05-25T21:13:26.769Z,100476.84
2019-05-25T21:16:32.125Z,100479.72
2019-05-25T21:19:37.217Z,100486.40
2019-05-25T21:22:42.231Z,100483.33
2019-05-25T21:25:48.406Z,100485.48
2019-05-25T21:28:53.387Z,100484.62
2019-05-25T21:31:58.129Z,100489.54
2019-05-25T21:35:02.953Z,100498.80
2019-05-25T21:38:08.183Z,100506.11
2019-05-25T21:41:13.041Z,100506.84
2019-05-25T21:44:17.888Z,100513.16
2019-05-25T21:47:23.633Z,100511.05
2019-05-25T21:50:28.478Z,100507.03
2019-05-25T21:53:33.617Z,100499.81
2019-05-25T21:56:38.799Z,100491.99
2019-05-25T21:59:44.145Z,100491.13
2019-05-25T22:02:49.189Z,100491.19
2019-05-25T22:05:53.981Z,100492.48
2019-05-25T22:08:58.846Z,100487.37
2019-05-25T22:12:04.795Z,100491.24
2019-05-25T22:15:10.625Z,100488.48
2019-05-25T22:18:15.435Z,100487.61
2019-05-25T22:21:20.589Z,100486.97
2019-05-25T22:24:25.871Z,100483.89
2019-05-25T22:27:30.670Z,100480.63
2019-05-25T22:30:35.507Z,100469.09
2019-05-25T22:33:40.674Z,100472.98
2019-05-25T22:36:45.731Z,100472.88
2019-05-25T22:39:50.503Z,100471.20
2019-05-25T22:42:55.381Z,100474.65
2019-05-25T22:46:00.223Z,100464.10
2019-05-25T22:49:05.427Z,100465.87
2019-05-25T22:52:10.524Z,100466.30
2019-05-25T22:55:15.716Z,100466.30
2019-05-25T22:58:20.648Z,100473.38
2019-05-25T23:01:25.476Z,100479.02
2019-05-25T23:04:30.312Z,100475.61
2019-05-25T23:07:36.129Z,100475.73
2019-05-25T23:10:40.906Z,100478.03
2019-05-25T23:13:46.422Z,100474.38
2019-05-25T23:16:51.526Z,100474.39
2019-05-25T23:19:56.589Z,100469.41
2019-05-25T23:23:01.377Z,100471.05
2019-05-25T23:26:06.680Z,100469.16
2019-05-25T23:29:12.054Z,100468.98
2019-05-25T23:32:17.164Z,100464.88
2019-05-25T23:35:22.183Z,100468.39
2019-05-25T23:38:28.548Z,100464.13
2019-05-25T23:41:33.464Z,100466.24
2019-05-25T23:44:38.395Z,100458.73
2019-05-25T23:47:43.175Z,100463.05
2019-05-25T23:50:48.294Z,100458.34
2019-05-25T23:53:53.486Z,100458.34
2019-05-25T23:56:58.219Z,100460.06
